createdAt,value
2019-03-15T00:00:49.840Z,6.1
2019-03-15T00:02:50.327Z,6.1
2019-03-15T00:04:50.182Z,4.2
2019-03-15T00:06:50.300Z,5.3
2019-03-15T00:08:49.846Z,5.2
2019-03-15T00:10:49.452Z,3.7
2019-03-15T00:12:49.976Z,3.7
2019-03-15T00:14:50.330Z,6.6
2019-03-15T00:16:49.885Z,3.8
2019-03-15T00:18:50.221Z,5.2
2019-03-15T00:20:49.635Z,5.2
2019-03-15T00:22:50.077Z,5.3
2019-03-15T00:24:50.409Z,5.3
2019-03-15T00:26:49.886Z,4.5
2019-03-15T00:28:50.285Z,5.6
2019-03-15T00:30:49.908Z,5.6
2019-03-15T00:32:50.314Z,5.1
2019-03-15T00:34:50.175Z,8.5
2019-03-15T00:36:49.696Z,5.7
2019-03-15T00:38:50.069Z,6.6
2019-03-15T00:40:50.436Z,6.6
2019-03-15T00:42:49.820Z,4.8
2019-03-15T00:44:50.217Z,6.1
2019-03-15T00:46:49.680Z,3.4
2019-03-15T00:48:50.074Z,6.2
2019-03-15T00:50:49.493Z,3.9
2019-03-15T00:52:49.841Z,3.9
2019-03-15T00:54:50.184Z,5.9
2019-03-15T00:56:49.675Z,4.3
2019-03-15T00:58:50.134Z,4.3
2019-03-15T01:00:49.528Z,6.5
2019-03-15T01:02:50.123Z,6.5
2019-03-15T01:04:50.102Z,6.0
2019-03-15T01:06:49.614Z,5.3
2019-03-15T01:08:50.139Z,5.9
2019-03-15T01:10:49.475Z,5.3
2019-03-15T01:12:50.937Z,5.3
2019-03-15T01:14:49.558Z,4.9
2019-03-15T01:16:50.144Z,5.3
2019-03-15T01:18:49.526Z,6.1
2019-03-15T01:20:50.010Z,6.1
2019-03-15T01:22:50.344Z,7.3
2019-03-15T01:24:49.775Z,5.8
2019-03-15T01:26:50.231Z,5.8
2019-03-15T01:28:49.581Z,6.2
2019-03-15T01:30:50.038Z,6.2
2019-03-15T01:32:50.435Z,7.8
2019-03-15T01:34:50.351Z,6.4
2019-03-15T01:36:50.048Z,9.0
2019-03-15T01:38:49.514Z,9.7
2019-03-15T01:40:49.901Z,9.7
2019-03-15T01:42:50.303Z,5.7
2019-03-15T01:44:49.627Z,8.6
2019-03-15T01:46:50.136Z,7.1
2019-03-15T01:48:49.507Z,7.1
2019-03-15T01:50:50.312Z,8.6
2019-03-15T01:52:49.908Z,8.6
2019-03-15T01:54:50.283Z,5.8
2019-03-15T01:56:49.955Z,9.2
2019-03-15T01:58:50.389Z,9.2
2019-03-15T02:00:49.721Z,6.4
2019-03-15T02:02:50.174Z,9.8
2019-03-15T02:04:50.143Z,7.5
2019-03-15T02:06:49.959Z,7.2
2019-03-15T02:08:50.310Z,7.2
2019-03-15T02:10:49.763Z,7.4
2019-03-15T02:12:50.383Z,7.4
2019-03-15T02:14:49.854Z,8.3
2019-03-15T02:16:50.360Z,7.7
2019-03-15T02:18:49.797Z,7.7
2019-03-15T02:20:50.114Z,8.9
2019-03-15T02:22:49.555Z,7.4
2019-03-15T02:24:49.980Z,5.8
2019-03-15T02:26:49.594Z,5.8
2019-03-15T02:28:50.009Z,7.2
2019-03-15T02:30:49.500Z,7.1
2019-03-15T02:32:49.935Z,7.6
2019-03-15T02:34:49.940Z,6.3
2019-03-15T02:36:49.720Z,6.3
2019-03-15T02:38:50.168Z,6.5
2019-03-15T02:40:49.527Z,6.3
2019-03-15T02:42:50.039Z,9.0
2019-03-15T02:44:49.653Z,9.0
2019-03-15T02:46:49.658Z,8.9
2019-03-15T02:48:50.134Z,8.9
2019-03-15T02:50:49.602Z,8.9
2019-03-15T02:52:49.934Z,7.6
2019-03-15T02:54:50.303Z,7.6
2019-03-15T02:56:49.966Z,8.8
2019-03-15T02:58:50.300Z,11.0
2019-03-15T03:00:49.780Z,8.2
2019-03-15T03:02:50.230Z,10.2
2019-03-15T03:04:50.243Z,10.2
2019-03-15T03:06:49.884Z,8.1
2019-03-15T03:08:49.545Z,8.1
2019-03-15T03:10:49.913Z,7.8
2019-03-15T03:12:50.325Z,7.6
2019-03-15T03:14:49.752Z,13.6
2019-03-15T03:16:50.430Z,13.6
2019-03-15T03:18:49.813Z,8.4
2019-03-15T03:20:50.104Z,6.8
2019-03-15T03:22:50.408Z,9.0
2019-03-15T03:24:50.862Z,9.0
2019-03-15T03:26:49.516Z,9.0
2019-03-15T03:28:49.998Z,9.0
2019-03-15T03:30:50.373Z,12.4
2019-03-15T03:32:49.820Z,12.4
2019-03-15T03:34:49.554Z,8.5
2019-03-15T03:36:50.162Z,8.5
2019-03-15T03:38:49.730Z,10.4
2019-03-15T03:40:50.226Z,11.4
2019-03-15T03:42:49.626Z,11.4
2019-03-15T03:44:50.129Z,10.6
2019-03-15T03:46:49.752Z,10.6
2019-03-15T03:48:50.104Z,11.4
2019-03-15T03:50:49.548Z,10.9
2019-03-15T03:52:50.078Z,10.1
2019-03-15T03:54:50.402Z,8.5
2019-03-15T03:56:49.987Z,8.5
2019-03-15T03:58:50.346Z,12.8
2019-03-15T04:00:49.854Z,9.4
2019-03-15T04:02:53.061Z,11.6
2019-03-15T04:04:50.375Z,11.6
2019-03-15T04:06:49.938Z,13.2
2019-03-15T04:08:49.692Z,9.7
2019-03-15T04:10:50.280Z,9.3
2019-03-15T04:12:49.726Z,10.7
2019-03-15T04:14:50.210Z,10.7
2019-03-15T04:16:49.658Z,12.1
2019-03-15T04:18:50.026Z,12.1
2019-03-15T04:20:50.410Z,6.8
2019-03-15T04:22:49.754Z,10.7
2019-03-15T04:24:50.088Z,10.7
2019-03-15T04:26:49.559Z,11.8
2019-03-15T04:28:49.943Z,11.8
2019-03-15T04:30:50.375Z,11.8
2019-03-15T04:32:49.770Z,12.2
2019-03-15T04:34:49.566Z,12.2
2019-03-15T04:36:50.182Z,10.9
2019-03-15T04:38:49.598Z,11.7
2019-03-15T04:40:50.080Z,11.7
2019-03-15T04:42:49.551Z,13.2
2019-03-15T04:44:50.040Z,10.0
2019-03-15T04:46:49.565Z,9.1
2019-03-15T04:48:49.951Z,11.5
2019-03-15T04:50:50.308Z,11.6
2019-03-15T04:52:49.665Z,11.6
2019-03-15T04:54:50.171Z,10.3
2019-03-15T04:56:49.721Z,10.9
2019-03-15T04:58:50.169Z,12.1
2019-03-15T05:00:49.583Z,9.5
2019-03-15T05:02:50.004Z,9.5
2019-03-15T05:04:49.777Z,10.4
2019-03-15T05:06:50.322Z,10.9
2019-03-15T05:08:49.822Z,10.9
2019-03-15T05:10:50.230Z,9.1
2019-03-15T05:12:49.621Z,9.1
2019-03-15T05:14:50.103Z,10.6
2019-03-15T05:16:49.564Z,11.6
2019-03-15T05:18:50.050Z,11.6
2019-03-15T05:20:49.520Z,8.4
2019-03-15T05:22:50.009Z,8.4
2019-03-15T05:24:49.579Z,11.3
2019-03-15T05:26:49.607Z,12.1
2019-03-15T05:28:50.010Z,12.1
2019-03-15T05:30:50.404Z,11.6
2019-03-15T05:32:49.822Z,11.6
2019-03-15T05:34:49.681Z,8.3
2019-03-15T05:36:50.242Z,11.5
2019-03-15T05:38:49.663Z,11.5
2019-03-15T05:40:50.050Z,11.9
2019-03-15T05:42:49.520Z,11.5
2019-03-15T05:44:49.893Z,11.5
2019-03-15T05:46:49.470Z,13.5
2019-03-15T05:48:49.889Z,11.0
2019-03-15T05:50:50.223Z,11.0
2019-03-15T05:52:49.653Z,11.8
2019-03-15T05:54:50.082Z,8.6
2019-03-15T05:56:49.684Z,13.6
2019-03-15T05:58:50.150Z,13.6
2019-03-15T06:00:49.508Z,15.8
2019-03-15T06:02:49.955Z,11.6
2019-03-15T06:04:49.880Z,15.8
2019-03-15T06:06:49.531Z,15.0
2019-03-15T06:08:49.870Z,15.0
2019-03-15T06:10:50.293Z,13.4
2019-03-15T06:12:49.664Z,10.7
2019-03-15T06:14:50.070Z,12.2
2019-03-15T06:16:49.561Z,12.2
2019-03-15T06:18:49.955Z,12.1
2019-03-15T06:20:50.384Z,12.9
2019-03-15T06:22:49.753Z,12.3
2019-03-15T06:24:50.162Z,11.4
2019-03-15T06:26:49.706Z,13.8
2019-03-15T06:28:50.015Z,13.8
2019-03-15T06:30:50.326Z,12.7
2019-03-15T06:32:49.758Z,11.4
2019-03-15T06:34:49.719Z,13.8
2019-03-15T06:36:49.851Z,14.6
2019-03-15T06:38:50.250Z,14.6
2019-03-15T06:40:49.741Z,11.7
2019-03-15T06:42:50.184Z,11.7
2019-03-15T06:44:57.570Z,12.4
2019-03-15T06:46:49.758Z,11.0
2019-03-15T06:48:50.146Z,11.0
2019-03-15T06:50:49.524Z,12.0
2019-03-15T06:52:49.986Z,11.9
2019-03-15T06:54:50.332Z,11.9
2019-03-15T06:56:49.891Z,12.2
2019-03-15T06:58:50.350Z,12.2
2019-03-15T07:00:49.801Z,11.1
2019-03-15T07:02:50.249Z,12.2
2019-03-15T07:04:50.002Z,12.2
2019-03-15T07:06:49.532Z,10.5
2019-03-15T07:08:49.957Z,14.6
2019-03-15T07:10:50.384Z,10.4
2019-03-15T07:12:49.842Z,11.9
2019-03-15T07:14:50.123Z,11.9
2019-03-15T07:16:49.819Z,9.6
2019-03-15T07:18:50.195Z,12.3
2019-03-15T07:20:49.681Z,12.7
2019-03-15T07:22:50.116Z,16.4
2019-03-15T07:24:49.509Z,12.5
2019-03-15T07:26:50.049Z,12.5
2019-03-15T07:28:50.377Z,10.9
2019-03-15T07:30:49.865Z,11.7
2019-03-15T07:32:50.213Z,11.9
2019-03-15T07:34:50.139Z,11.9
2019-03-15T07:36:49.786Z,11.8
2019-03-15T07:38:50.407Z,11.6
2019-03-15T07:40:49.881Z,12.6
2019-03-15T07:42:50.244Z,10.8
2019-03-15T07:44:49.766Z,10.8
2019-03-15T07:46:51.083Z,10.2
2019-03-15T07:48:49.520Z,10.4
2019-03-15T07:50:49.886Z,13.9
2019-03-15T07:52:50.267Z,13.9
2019-03-15T07:54:49.627Z,12.6
2019-03-15T07:56:50.087Z,10.6
2019-03-15T07:58:49.486Z,8.4
2019-03-15T08:00:50.005Z,14.5
2019-03-15T08:02:50.271Z,14.5
2019-03-15T08:04:50.345Z,8.3
2019-03-15T08:06:49.861Z,9.8
2019-03-15T08:08:50.196Z,9.6
2019-03-15T08:10:49.666Z,12.6
2019-03-15T08:12:50.090Z,12.6
2019-03-15T08:14:49.540Z,10.2
2019-03-15T08:16:50.102Z,10.5
2019-03-15T08:18:49.612Z,9.2
2019-03-15T08:20:50.015Z,9.2
2019-03-15T08:22:50.420Z,11.2
2019-03-15T08:24:51.652Z,11.2
2019-03-15T08:26:49.714Z,7.9
2019-03-15T08:28:50.186Z,7.9
2019-03-15T08:30:49.566Z,8.5
2019-03-15T08:32:49.980Z,8.5
2019-03-15T08:34:49.777Z,11.0
2019-03-15T08:36:50.303Z,8.6
2019-03-15T08:38:49.666Z,8.0
2019-03-15T08:40:49.981Z,8.0
2019-03-15T08:42:50.209Z,8.9
2019-03-15T08:44:50.363Z,10.8
2019-03-15T08:46:50.078Z,10.4
2019-03-15T08:48:49.454Z,8.2
2019-03-15T08:50:49.767Z,8.8
2019-03-15T08:52:49.999Z,8.8
2019-03-15T08:54:50.267Z,10.3
2019-03-15T08:56:49.442Z,10.3
2019-03-15T08:58:49.663Z,9.5
2019-03-15T09:00:49.912Z,9.5
2019-03-15T09:02:50.135Z,12.2
2019-03-15T09:04:50.528Z,7.0
2019-03-15T09:06:50.040Z,5.0
2019-03-15T09:08:50.252Z,6.7
2019-03-15T09:10:49.640Z,6.7
2019-03-15T09:12:49.924Z,6.0
2019-03-15T09:14:50.201Z,6.0
2019-03-15T09:16:49.568Z,7.0
2019-03-15T09:18:49.827Z,7.2
2019-03-15T09:20:50.007Z,7.2
2019-03-15T09:22:50.248Z,6.3
2019-03-15T09:24:49.533Z,6.4
2019-03-15T09:26:49.954Z,6.7
2019-03-15T09:28:50.251Z,8.8
2019-03-15T09:30:49.564Z,8.8
2019-03-15T09:32:49.876Z,9.3
2019-03-15T09:34:49.437Z,9.4
2019-03-15T09:36:50.602Z,7.7
2019-03-15T09:38:49.878Z,7.6
2019-03-15T09:40:50.176Z,7.6
2019-03-15T09:42:49.453Z,7.5
2019-03-15T09:44:49.721Z,8.0
2019-03-15T09:46:50.139Z,6.6
2019-03-15T09:48:50.360Z,6.6
2019-03-15T09:50:51.385Z,7.2
2019-03-15T09:52:50.261Z,9.1
2019-03-15T09:54:49.570Z,9.0
2019-03-15T09:56:49.867Z,5.7
2019-03-15T09:58:50.112Z,5.7
2019-03-15T10:00:50.370Z,9.5
2019-03-15T10:02:49.589Z,7.7
2019-03-15T10:04:50.191Z,5.9
2019-03-15T10:06:49.508Z,3.1
2019-03-15T10:08:49.723Z,3.1
2019-03-15T10:10:49.953Z,4.0
2019-03-15T10:12:50.211Z,2.8
2019-03-15T10:14:49.679Z,4.0
2019-03-15T10:16:50.099Z,3.1
2019-03-15T10:18:50.607Z,3.1
2019-03-15T10:20:49.975Z,3.4
2019-03-15T10:23:04.534Z,2.2
2019-03-15T10:24:49.527Z,2.2
2019-03-15T10:26:49.801Z,2.6
2019-03-15T10:28:50.123Z,2.6
2019-03-15T10:30:50.409Z,3.4
2019-03-15T10:32:49.724Z,1.8
2019-03-15T10:34:50.310Z,2.2
2019-03-15T10:36:49.455Z,1.9
2019-03-15T10:38:50.315Z,1.9
2019-03-15T10:40:49.706Z,1.5
2019-03-15T10:42:50.125Z,1.7
2019-03-15T10:44:49.632Z,2.5
2019-03-15T10:46:50.126Z,2.5
2019-03-15T10:48:50.346Z,3.4
2019-03-15T10:50:49.641Z,1.9
2019-03-15T10:52:49.978Z,3.0
2019-03-15T10:54:50.280Z,4.5
2019-03-15T10:56:49.649Z,4.5
2019-03-15T10:58:50.015Z,3.3
2019-03-15T11:00:50.205Z,3.3
2019-03-15T11:02:49.449Z,2.7
2019-03-15T11:04:50.049Z,2.7
2019-03-15T11:06:49.566Z,1.7
2019-03-15T11:08:49.816Z,2.4
2019-03-15T11:10:50.125Z,1.8
2019-03-15T11:12:50.356Z,1.7
2019-03-15T11:14:49.681Z,1.7
2019-03-15T11:16:50.056Z,1.8
2019-03-15T11:18:50.251Z,1.6
2019-03-15T11:20:49.516Z,1.6
2019-03-15T11:22:49.730Z,1.6
2019-03-15T11:24:49.924Z,1.9
2019-03-15T11:26:50.248Z,1.9
2019-03-15T11:28:49.618Z,1.8
2019-03-15T11:30:49.822Z,1.9
2019-03-15T11:32:50.460Z,1.9
2019-03-15T11:34:50.339Z,1.9
2019-03-15T11:36:58.023Z,1.9
2019-03-15T11:38:50.413Z,2.1
2019-03-15T11:40:49.644Z,2.6
2019-03-15T11:42:49.962Z,2.6
2019-03-15T11:44:50.234Z,2.1
2019-03-15T11:46:49.686Z,2.1
2019-03-15T11:48:50.339Z,2.1
2019-03-15T11:50:49.752Z,2.7
2019-03-15T11:52:50.107Z,2.5
2019-03-15T11:54:49.878Z,2.5
2019-03-15T11:56:50.871Z,2.2
2019-03-15T11:58:49.515Z,3.1
2019-03-15T12:00:49.835Z,3.1
2019-03-15T12:02:50.159Z,3.1
2019-03-15T12:04:49.974Z,2.8
2019-03-15T12:06:50.462Z,2.6
2019-03-15T12:08:49.810Z,3.3
2019-03-15T12:10:50.166Z,2.2
2019-03-15T12:12:49.625Z,2.2
2019-03-15T12:14:49.998Z,3.0
2019-03-15T12:16:49.496Z,3.0
2019-03-15T12:18:49.833Z,2.6
2019-03-15T12:20:50.253Z,2.3
2019-03-15T12:22:49.657Z,2.3
2019-03-15T12:24:50.029Z,2.6
2019-03-15T12:26:50.422Z,2.4
2019-03-15T12:28:49.727Z,3.0
2019-03-15T12:30:49.921Z,3.0
2019-03-15T12:32:50.291Z,2.4
2019-03-15T12:34:50.164Z,2.4
2019-03-15T12:36:49.713Z,2.4
2019-03-15T12:38:50.095Z,1.9
2019-03-15T12:40:50.397Z,1.9
2019-03-15T12:42:49.650Z,1.8
2019-03-15T12:44:50.118Z,1.8
2019-03-15T12:46:49.627Z,2.0
2019-03-15T12:48:49.963Z,2.3
2019-03-15T12:50:49.645Z,2.3
2019-03-15T12:52:50.314Z,1.7
2019-03-15T12:54:49.723Z,1.8
2019-03-15T12:56:53.853Z,1.8
2019-03-15T12:58:49.546Z,1.4
2019-03-15T13:00:49.905Z,1.6
2019-03-15T13:02:50.245Z,1.6
2019-03-15T13:04:51.984Z,2.2
2019-03-15T13:06:49.701Z,1.5
2019-03-15T13:08:50.089Z,1.6
2019-03-15T13:10:50.335Z,1.6
2019-03-15T13:12:49.673Z,1.2
2019-03-15T13:14:49.984Z,1.4
2019-03-15T13:16:49.559Z,1.1
2019-03-15T13:18:50.044Z,1.1
2019-03-15T13:20:50.365Z,1.5
2019-03-15T13:22:49.823Z,2.5
2019-03-15T13:24:50.150Z,1.2
2019-03-15T13:26:49.605Z,1.0
2019-03-15T13:28:49.905Z,1.0
2019-03-15T13:30:50.330Z,1.3
2019-03-15T13:32:49.892Z,1.5
2019-03-15T13:34:49.685Z,1.1
2019-03-15T13:36:50.256Z,1.1
2019-03-15T13:38:49.730Z,1.0
2019-03-15T13:40:50.091Z,1.1
2019-03-15T13:42:49.528Z,1.4
2019-03-15T13:44:49.933Z,1.0
2019-03-15T13:46:49.497Z,1.0
2019-03-15T13:48:49.831Z,1.0
2019-03-15T13:50:50.247Z,1.2
2019-03-15T13:52:49.582Z,1.0
2019-03-15T13:54:49.941Z,2.1
2019-03-15T13:56:49.520Z,2.1
2019-03-15T13:58:56.963Z,1.2
2019-03-15T14:00:50.143Z,0.8
2019-03-15T14:02:49.465Z,0.8
2019-03-15T14:04:50.261Z,1.0
2019-03-15T14:06:49.668Z,1.1
2019-03-15T14:08:50.009Z,1.1
2019-03-15T14:10:50.340Z,1.0
2019-03-15T14:12:49.721Z,1.0
2019-03-15T14:14:50.001Z,1.4
2019-03-15T14:16:49.567Z,0.9
2019-03-15T14:18:49.913Z,0.9
2019-03-15T14:20:50.371Z,0.9
2019-03-15T14:22:49.639Z,0.8
2019-03-15T14:24:49.936Z,0.9
2019-03-15T14:26:50.926Z,0.9
2019-03-15T14:28:49.540Z,0.9
2019-03-15T14:30:49.846Z,0.9
2019-03-15T14:32:50.295Z,1.9
2019-03-15T14:34:50.018Z,0.9
2019-03-15T14:36:49.641Z,0.9
2019-03-15T14:38:50.290Z,1.0
2019-03-15T14:40:50.414Z,1.2
2019-03-15T14:42:49.670Z,1.0
2019-03-15T14:44:50.533Z,1.5
2019-03-15T14:46:49.525Z,0.9
2019-03-15T14:48:49.830Z,0.9
2019-03-15T14:50:50.208Z,1.5
2019-03-15T14:52:49.469Z,1.0
2019-03-15T14:54:49.682Z,0.9
2019-03-15T14:56:50.104Z,0.9
2019-03-15T14:58:50.381Z,0.9
2019-03-15T15:00:49.803Z,1.4
2019-03-15T15:02:49.439Z,0.9
2019-03-15T15:04:49.569Z,0.9
2019-03-15T15:06:50.004Z,0.8
2019-03-15T15:08:50.201Z,0.9
2019-03-15T15:10:49.488Z,0.8
2019-03-15T15:12:49.859Z,0.8
2019-03-15T15:14:50.025Z,0.7
2019-03-15T15:16:49.478Z,1.5
2019-03-15T15:18:49.626Z,0.8
2019-03-15T15:20:50.010Z,0.9
2019-03-15T15:22:49.549Z,0.9
2019-03-15T15:24:49.841Z,0.9
2019-03-15T15:26:50.292Z,1.0
2019-03-15T15:28:49.442Z,1.0
2019-03-15T15:30:49.593Z,0.9
2019-03-15T15:32:49.771Z,0.8
2019-03-15T15:34:50.267Z,0.8
2019-03-15T15:36:49.748Z,1.0
2019-03-15T15:38:49.948Z,0.9
2019-03-15T15:40:50.142Z,0.9
2019-03-15T15:42:49.456Z,0.9
2019-03-15T15:44:49.779Z,0.9
2019-03-15T15:46:50.191Z,1.0
2019-03-15T15:48:50.489Z,1.0
2019-03-15T15:50:49.731Z,0.8
2019-03-15T15:52:50.056Z,0.8
2019-03-15T15:54:50.303Z,0.9
2019-03-15T15:56:50.902Z,1.0
2019-03-15T15:58:50.388Z,1.1
2019-03-15T16:00:49.545Z,1.5
2019-03-15T16:02:49.727Z,1.5
2019-03-15T16:04:50.338Z,1.0
2019-03-15T16:06:49.758Z,1.0
2019-03-15T16:08:50.025Z,1.0
2019-03-15T16:10:50.242Z,1.1
2019-03-15T16:12:49.601Z,1.1
2019-03-15T16:14:49.821Z,1.5
2019-03-15T16:16:50.229Z,1.0
2019-03-15T16:18:49.460Z,1.2
2019-03-15T16:20:50.012Z,1.2
2019-03-15T16:22:50.382Z,1.1
2019-03-15T16:24:49.585Z,1.3
2019-03-15T16:26:49.935Z,1.1
2019-03-15T16:28:50.135Z,1.3
2019-03-15T16:30:50.375Z,1.3
2019-03-15T16:32:49.661Z,1.0
2019-03-15T16:34:50.303Z,1.0
2019-03-15T16:36:49.673Z,1.0
2019-03-15T16:38:49.977Z,1.2
2019-03-15T16:40:50.250Z,1.2
2019-03-15T16:42:50.416Z,1.3
2019-03-15T16:44:49.842Z,1.3
2019-03-15T16:46:50.211Z,1.1
2019-03-15T16:48:49.546Z,1.0
2019-03-15T16:50:51.768Z,1.0
2019-03-15T16:52:50.363Z,1.0
2019-03-15T16:54:49.600Z,1.2
2019-03-15T16:56:49.922Z,1.1
2019-03-15T16:58:50.191Z,1.2
2019-03-15T17:00:49.473Z,1.2
2019-03-15T17:02:49.744Z,1.2
2019-03-15T17:04:49.551Z,1.2
2019-03-15T17:06:49.863Z,1.2
2019-03-15T17:08:50.242Z,1.1
2019-03-15T17:10:49.571Z,1.1
2019-03-15T17:12:49.891Z,1.1
2019-03-15T17:14:50.296Z,1.1
2019-03-15T17:16:49.834Z,1.1
2019-03-15T17:18:50.121Z,1.2
2019-03-15T17:20:50.434Z,1.2
2019-03-15T17:22:49.809Z,1.2
2019-03-15T17:24:50.269Z,0.9
2019-03-15T17:26:51.414Z,1.0
2019-03-15T17:28:58.310Z,0.9
2019-03-15T17:30:49.479Z,0.9
2019-03-15T17:32:49.681Z,1.0
2019-03-15T17:34:50.254Z,1.0
2019-03-15T17:36:49.586Z,1.0
2019-03-15T17:38:49.857Z,1.0
2019-03-15T17:40:50.110Z,1.1
2019-03-15T17:42:50.415Z,1.0
2019-03-15T17:44:49.627Z,1.1
2019-03-15T17:46:50.040Z,1.1
2019-03-15T17:48:50.272Z,1.2
2019-03-15T17:50:49.602Z,1.0
2019-03-15T17:52:49.807Z,1.0
2019-03-15T17:54:50.116Z,1.3
2019-03-15T17:56:49.798Z,1.2
2019-03-15T17:58:50.108Z,1.2
2019-03-15T18:00:50.302Z,1.2
2019-03-15T18:02:49.644Z,1.2
2019-03-15T18:04:50.276Z,1.1
2019-03-15T18:06:49.908Z,1.1
2019-03-15T18:08:50.185Z,1.1
2019-03-15T18:10:50.439Z,1.2
2019-03-15T18:12:49.707Z,1.2
2019-03-15T18:14:49.956Z,2.5
2019-03-15T18:16:50.332Z,2.5
2019-03-15T18:18:49.544Z,1.0
2019-03-15T18:20:49.765Z,1.1
2019-03-15T18:22:49.954Z,1.1
2019-03-15T18:24:50.205Z,1.2
2019-03-15T18:26:49.541Z,1.2
2019-03-15T18:28:49.781Z,1.3
2019-03-15T18:30:50.064Z,1.3
2019-03-15T18:32:50.351Z,1.2
2019-03-15T18:34:50.115Z,1.2
2019-03-15T18:36:49.524Z,1.1
2019-03-15T18:38:49.745Z,1.1
2019-03-15T18:40:49.940Z,1.2
2019-03-15T18:42:50.287Z,1.2
2019-03-15T18:44:49.602Z,1.1
2019-03-15T18:46:50.110Z,1.3
2019-03-15T18:48:50.389Z,1.3
2019-03-15T18:50:49.669Z,1.2
2019-03-15T18:52:49.942Z,1.3
2019-03-15T18:54:50.192Z,1.9
2019-03-15T18:56:49.656Z,1.9
2019-03-15T18:58:49.947Z,1.2
2019-03-15T19:00:49.437Z,1.3
2019-03-15T19:02:49.671Z,1.2
2019-03-15T19:04:50.236Z,1.2
2019-03-15T19:06:49.627Z,1.6
2019-03-15T19:08:49.801Z,1.3
2019-03-15T19:10:50.041Z,1.3
2019-03-15T19:12:50.181Z,1.3
2019-03-15T19:14:49.483Z,1.3
2019-03-15T19:16:49.878Z,1.5
2019-03-15T19:18:50.060Z,1.4
2019-03-15T19:20:50.411Z,1.4
2019-03-15T19:22:49.773Z,1.7
2019-03-15T19:24:50.049Z,1.8
2019-03-15T19:26:50.393Z,1.8
2019-03-15T19:28:49.635Z,1.4
2019-03-15T19:30:49.841Z,1.5
2019-03-15T19:32:50.184Z,1.3
2019-03-15T19:34:49.880Z,1.3
2019-03-15T19:36:50.206Z,1.4
2019-03-15T19:38:49.498Z,1.2
2019-03-15T19:40:49.735Z,1.4
2019-03-15T19:42:50.053Z,1.1
2019-03-15T19:44:50.297Z,1.1
2019-03-15T19:46:49.796Z,1.2
2019-03-15T19:48:49.949Z,1.1
2019-03-15T19:50:50.165Z,1.1
2019-03-15T19:52:49.436Z,1.1
2019-03-15T19:54:59.700Z,0.8
2019-03-15T19:56:50.002Z,0.9
2019-03-15T19:58:50.310Z,0.9
2019-03-15T20:00:49.544Z,0.9
2019-03-15T20:02:49.891Z,0.9
2019-03-15T20:04:49.430Z,0.9
2019-03-15T20:06:50.044Z,0.8
2019-03-15T20:08:50.270Z,1.4
2019-03-15T20:10:49.603Z,0.9
2019-03-15T20:12:49.921Z,0.9
2019-03-15T20:14:50.228Z,0.8
2019-03-15T20:16:49.609Z,0.8
2019-03-15T20:18:49.890Z,0.9
2019-03-15T20:20:50.318Z,0.8
2019-03-15T20:22:49.462Z,0.8
2019-03-15T20:24:49.650Z,0.8
2019-03-15T20:26:49.954Z,0.8
2019-03-15T20:28:50.155Z,0.8
2019-03-15T20:30:52.051Z,0.8
2019-03-15T20:32:49.788Z,0.9
2019-03-15T20:34:50.362Z,0.8
2019-03-15T20:36:49.778Z,0.7
2019-03-15T20:38:50.027Z,0.9
2019-03-15T20:40:50.291Z,0.9
2019-03-15T20:42:49.576Z,0.6
2019-03-15T20:44:49.837Z,0.6
2019-03-15T20:46:50.158Z,0.9
2019-03-15T20:48:49.443Z,0.7
2019-03-15T20:50:49.777Z,0.7
2019-03-15T20:52:50.019Z,0.7
2019-03-15T20:54:50.279Z,0.7
2019-03-15T20:56:49.710Z,0.6
2019-03-15T20:58:50.014Z,0.7
2019-03-15T21:00:50.229Z,0.8
2019-03-15T21:02:49.671Z,0.8
2019-03-15T21:04:49.461Z,0.8
2019-03-15T21:06:49.843Z,0.8
2019-03-15T21:08:50.099Z,0.7
2019-03-15T21:10:51.596Z,0.7
2019-03-15T21:12:50.104Z,0.7
2019-03-15T21:14:50.347Z,0.7
2019-03-15T21:16:49.775Z,0.8
2019-03-15T21:18:50.045Z,0.7
2019-03-15T21:20:50.288Z,0.7
2019-03-15T21:22:49.636Z,0.8
2019-03-15T21:24:49.988Z,0.7
2019-03-15T21:26:49.489Z,0.7
2019-03-15T21:28:49.673Z,0.7
2019-03-15T21:30:49.986Z,1.1
2019-03-15T21:32:50.223Z,1.1
2019-03-15T21:34:49.811Z,0.8
2019-03-15T21:36:50.263Z,0.7
2019-03-15T21:38:49.575Z,0.7
2019-03-15T21:40:49.920Z,0.7
2019-03-15T21:42:50.082Z,0.9
2019-03-15T21:44:50.320Z,1.5
2019-03-15T21:46:49.728Z,0.7
2019-03-15T21:48:49.945Z,0.7
2019-03-15T21:50:50.214Z,0.8
2019-03-15T21:52:49.452Z,0.7
2019-03-15T21:54:49.643Z,0.7
2019-03-15T21:56:50.075Z,0.8
2019-03-15T21:58:50.346Z,0.8
2019-03-15T22:01:01.517Z,0.7
2019-03-15T22:02:49.780Z,0.8
2019-03-15T22:04:50.343Z,0.9
2019-03-15T22:06:49.808Z,0.9
2019-03-15T22:08:49.975Z,0.8
2019-03-15T22:10:50.272Z,0.9
2019-03-15T22:12:49.722Z,0.9
2019-03-15T22:14:50.117Z,0.9
2019-03-15T22:16:49.664Z,0.8
2019-03-15T22:18:49.868Z,0.8
2019-03-15T22:20:50.195Z,0.8
2019-03-15T22:22:50.377Z,0.9
2019-03-15T22:24:49.742Z,0.8
2019-03-15T22:26:50.113Z,0.8
2019-03-15T22:28:50.372Z,0.8
2019-03-15T22:30:49.710Z,0.8
2019-03-15T22:32:50.082Z,1.0
2019-03-15T22:34:49.709Z,0.8
2019-03-15T22:36:50.206Z,0.8
2019-03-15T22:38:49.529Z,0.8
2019-03-15T22:40:49.714Z,0.8
2019-03-15T22:42:49.974Z,0.8
2019-03-15T22:44:50.187Z,0.8
2019-03-15T22:46:49.641Z,0.9
2019-03-15T22:48:49.898Z,0.9
2019-03-15T22:50:50.157Z,0.8
2019-03-15T22:52:49.494Z,0.8
2019-03-15T22:54:49.655Z,0.8
2019-03-15T22:56:50.032Z,0.7
2019-03-15T22:58:50.380Z,0.8
2019-03-15T23:00:49.641Z,0.9
2019-03-15T23:02:49.934Z,0.9
2019-03-15T23:04:50.216Z,0.9
2019-03-15T23:06:49.627Z,0.8
2019-03-15T23:08:49.947Z,0.8
2019-03-15T23:10:50.290Z,0.8
2019-03-15T23:12:49.596Z,0.8
2019-03-15T23:14:49.886Z,0.9
2019-03-15T23:16:50.260Z,0.9
2019-03-15T23:18:49.579Z,1.0
2019-03-15T23:20:49.815Z,0.9
2019-03-15T23:22:50.158Z,0.8
2019-03-15T23:24:50.312Z,0.8
2019-03-15T23:26:49.789Z,0.8
2019-03-15T23:28:50.080Z,0.9
2019-03-15T23:30:50.348Z,0.9
2019-03-15T23:32:49.627Z,0.9
2019-03-15T23:34:50.074Z,0.8
2019-03-15T23:36:49.494Z,0.9
2019-03-15T23:38:49.669Z,1.5
2019-03-15T23:40:49.908Z,0.7
2019-03-15T23:42:50.143Z,0.7
2019-03-15T23:44:50.383Z,0.8
2019-03-15T23:46:49.827Z,0.8
2019-03-15T23:48:50.124Z,0.8
2019-03-15T23:50:50.466Z,1.3
2019-03-15T23:52:49.794Z,1.3
2019-03-15T23:54:50.155Z,0.8
2019-03-15T23:56:49.561Z,0.7
2019-03-15T23:58:49.920Z,0.9
